Terminal Aerodrome Forecast
Issued by NWS Buffalo, NY

Home | Current Version | Previous Version | Text Only | Print | Product List | Glossary On
Versions: 1 2 3 4 5 6 7 8 9 10 11 12 13 14 15 16 17 18 19 20 21 22 23 24 25 26 27 28 29 30
000
FTUS41 KBUF 241100
TAFART
TAF
KART 241123Z 2412/2512 VRB03KT P6SM BKN080
     FM241600 31005KT P6SM BKN090
     FM242000 28006KT P6SM SCT120
     FM250000 24005KT P6SM FEW250
     FM250600 25004KT P6SM SCT250=

USA.gov is the U.S. government's official web portal to all federal, state and local government web resources and services.